Time;durP1;ratioP1;P1;durP2;ratioP2;P2;SDS_P1;SDS_P2;PMS_P1;PMS_P2;Temp;Humidity;BMP_temperature;BMP_pressure;BME280_temperature;BME280_humidity;BME280_pressure;Samples;Min_cycle;Max_cycle;Signal;HPM_P1;HPM_P2
2021/07/05 00:01:32;;;;;;;17.20;8.10;;;;;;;;;;4909330;28;20048;-59
2021/07/05 00:03:59;;;;;;;18.40;9.05;;;;;;;;;;4892948;28;20037;-59
2021/07/05 00:06:27;;;;;;;16.73;9.13;;;;;;;;;;4902668;28;20044;-58
2021/07/05 00:08:57;;;;;;;16.77;9.15;;;;;;;;;;4891380;28;20116;-60
2021/07/05 00:11:25;;;;;;;22.80;9.38;;;;;;;;;;4892726;28;20129;-58
2021/07/05 00:13:57;;;;;;;17.60;9.27;;;;;;;;;;4892117;28;20036;-58
2021/07/05 00:16:23;;;;;;;17.13;8.27;;;;;;;;;;4877953;28;21087;-58
2021/07/05 00:18:48;;;;;;;22.38;9.10;;;;;;;;;;4878775;28;20048;-58
2021/07/05 00:21:18;;;;;;;21.02;8.65;;;;;;;;;;4892950;28;20041;-60
2021/07/05 00:23:48;;;;;;;15.40;8.68;;;;;;;;;;4895062;28;20110;-59
2021/07/05 00:26:16;;;;;;;18.30;8.95;;;;;;;;;;4895319;28;22190;-60
2021/07/05 00:28:41;;;;;;;17.80;9.38;;;;;;;;;;4896585;28;20992;-58
2021/07/05 00:31:07;;;;;;;20.35;9.88;;;;;;;;;;4877456;28;20112;-58
2021/07/05 00:33:36;;;;;;;19.67;9.57;;;;;;;;;;4905717;28;20056;-58
2021/07/05 00:39:39;;;;;;;19.27;9.02;;;;;;;;;;4892743;28;20132;-59
2021/07/05 00:42:05;;;;;;;24.98;10.30;;;;;;;;;;4894054;28;20040;-59
2021/07/05 00:44:30;;;;;;;25.83;10.63;;;;;;;;;;4875004;28;20048;-58
2021/07/05 00:46:56;;;;;;;20.05;9.85;;;;;;;;;;4879880;28;20035;-58
2021/07/05 00:49:21;;;;;;;19.80;10.32;;;;;;;;;;4876904;28;20114;-58
2021/07/05 00:51:49;;;;;;;23.73;9.82;;;;;;;;;;4864401;28;20025;-59
2021/07/05 00:54:17;;;;;;;24.05;9.85;;;;;;;;;;4872509;28;20036;-58
2021/07/05 00:56:42;;;;;;;17.52;9.27;;;;;;;;;;4892966;28;20040;-59
2021/07/05 00:59:10;;;;;;;22.10;10.00;;;;;;;;;;4905859;28;20049;-59
2021/07/05 01:01:36;;;;;;;23.50;10.13;;;;;;;;;;4876185;28;20036;-59
2021/07/05 01:04:04;;;;;;;25.60;11.45;;;;;;;;;;4893101;28;20040;-59
2021/07/05 01:06:31;;;;;;;22.60;10.45;;;;;;;;;;4890895;28;20029;-59
2021/07/05 01:09:00;;;;;;;24.17;10.85;;;;;;;;;;4891150;28;20123;-60
2021/07/05 01:11:28;;;;;;;21.20;10.30;;;;;;;;;;4893478;28;20503;-59
2021/07/05 01:13:56;;;;;;;21.30;10.38;;;;;;;;;;4875105;28;20047;-59
2021/07/05 01:16:22;;;;;;;31.70;11.57;;;;;;;;;;4893144;28;20119;-60
2021/07/05 01:18:52;;;;;;;23.85;10.88;;;;;;;;;;4891039;28;20094;-59
2021/07/05 01:21:21;;;;;;;24.20;10.73;;;;;;;;;;4889901;28;20551;-58
2021/07/05 01:23:51;;;;;;;25.33;11.20;;;;;;;;;;4893587;28;20028;-59
2021/07/05 01:29:57;;;;;;;24.10;10.68;;;;;;;;;;4892974;28;20026;-59
2021/07/05 01:32:25;;;;;;;22.70;10.48;;;;;;;;;;4871410;28;20044;-59
2021/07/05 01:34:53;;;;;;;20.20;10.15;;;;;;;;;;4891415;28;20843;-60
2021/07/05 01:37:23;;;;;;;23.75;10.73;;;;;;;;;;4873872;28;20075;-58
2021/07/05 01:39:54;;;;;;;22.58;10.13;;;;;;;;;;4891546;28;20086;-58
2021/07/05 01:42:22;;;;;;;19.33;10.73;;;;;;;;;;4891572;28;20033;-59
2021/07/05 01:44:47;;;;;;;20.48;10.07;;;;;;;;;;4889850;28;20142;-59
2021/07/05 01:47:15;;;;;;;23.33;10.43;;;;;;;;;;4874204;28;20662;-58
2021/07/05 01:49:44;;;;;;;23.67;11.93;;;;;;;;;;4892186;28;20035;-58
2021/07/05 01:52:16;;;;;;;23.23;10.48;;;;;;;;;;4876741;28;20040;-58
2021/07/05 01:54:41;;;;;;;22.05;10.65;;;;;;;;;;4890284;28;20028;-58
2021/07/05 01:57:24;;;;;;;25.40;10.35;;;;;;;;;;4889679;28;20858;-58
2021/07/05 01:59:58;;;;;;;19.45;8.88;;;;;;;;;;4906119;28;20501;-59
2021/07/05 02:02:26;;;;;;;22.13;9.95;;;;;;;;;;4892816;28;20047;-58
2021/07/05 02:04:54;;;;;;;23.70;10.85;;;;;;;;;;4892396;28;20028;-58
2021/07/05 02:07:20;;;;;;;28.02;9.98;;;;;;;;;;4889808;28;20056;-58
2021/07/05 02:09:48;;;;;;;19.20;10.07;;;;;;;;;;4892751;28;20772;-58
2021/07/05 02:12:18;;;;;;;23.92;10.27;;;;;;;;;;4891057;28;20496;-58
2021/07/05 02:14:44;;;;;;;21.50;10.55;;;;;;;;;;4890808;28;20591;-58
2021/07/05 02:17:10;;;;;;;20.38;10.25;;;;;;;;;;4872118;28;20136;-58
2021/07/05 02:19:40;;;;;;;25.17;10.50;;;;;;;;;;4890729;28;20143;-58
2021/07/05 02:22:06;;;;;;;24.10;10.93;;;;;;;;;;4890229;28;20028;-58
2021/07/05 02:24:36;;;;;;;31.67;11.18;;;;;;;;;;4892571;28;20032;-58
2021/07/05 02:27:05;;;;;;;25.27;10.77;;;;;;;;;;4889593;28;20039;-57
2021/07/05 02:29:31;;;;;;;25.60;10.00;;;;;;;;;;4891006;28;20976;-58
2021/07/05 02:31:59;;;;;;;22.05;10.52;;;;;;;;;;4876271;28;20044;-58
2021/07/05 02:34:27;;;;;;;22.77;10.73;;;;;;;;;;4890038;28;20043;-59
2021/07/05 02:36:52;;;;;;;24.88;10.05;;;;;;;;;;4890626;28;20484;-57
2021/07/05 02:39:25;;;;;;;24.33;10.30;;;;;;;;;;4888660;28;20036;-58
2021/07/05 02:41:50;;;;;;;21.52;10.63;;;;;;;;;;4890998;28;20038;-57
2021/07/05 02:44:18;;;;;;;23.95;10.38;;;;;;;;;;4874114;28;20048;-59
2021/07/05 02:46:44;;;;;;;19.17;9.57;;;;;;;;;;4889909;28;20047;-59
2021/07/05 02:49:09;;;;;;;22.98;10.93;;;;;;;;;;4891482;28;20040;-59
2021/07/05 02:51:37;;;;;;;28.15;10.93;;;;;;;;;;4889131;28;20621;-58
2021/07/05 02:54:05;;;;;;;24.92;11.13;;;;;;;;;;4888906;28;20094;-58
2021/07/05 02:56:30;;;;;;;25.48;10.40;;;;;;;;;;4889620;28;20041;-57
2021/07/05 02:58:56;;;;;;;21.90;9.70;;;;;;;;;;4891629;28;20046;-59
2021/07/05 03:01:23;;;;;;;19.92;10.05;;;;;;;;;;4891560;28;20044;-58
2021/07/05 03:03:51;;;;;;;23.70;10.18;;;;;;;;;;4888930;28;20127;-58
2021/07/05 03:06:17;;;;;;;26.50;10.43;;;;;;;;;;4905740;28;20042;-58
2021/07/05 03:08:47;;;;;;;21.38;10.35;;;;;;;;;;4891235;28;20044;-59
2021/07/05 03:11:12;;;;;;;22.92;10.65;;;;;;;;;;4873113;28;20043;-58
2021/07/05 03:13:38;;;;;;;25.67;10.70;;;;;;;;;;4891459;28;20047;-59
2021/07/05 03:16:04;;;;;;;25.95;11.80;;;;;;;;;;4889577;28;20131;-59
2021/07/05 03:18:31;;;;;;;28.90;12.20;;;;;;;;;;4872814;28;20126;-59
2021/07/05 03:21:01;;;;;;;23.00;10.55;;;;;;;;;;4892481;28;20451;-58
2021/07/05 03:23:28;;;;;;;27.92;12.95;;;;;;;;;;4891052;28;20163;-59
2021/07/05 03:26:00;;;;;;;26.52;12.13;;;;;;;;;;4873227;28;20143;-59
2021/07/05 03:28:26;;;;;;;31.45;12.80;;;;;;;;;;4889467;28;20033;-59
2021/07/05 03:30:54;;;;;;;33.00;12.80;;;;;;;;;;4888585;28;20028;-58
2021/07/05 03:33:19;;;;;;;29.73;11.82;;;;;;;;;;4892415;28;20042;-59
2021/07/05 03:35:46;;;;;;;27.77;11.07;;;;;;;;;;4890567;28;20044;-58
2021/07/05 03:38:17;;;;;;;27.90;11.98;;;;;;;;;;4888553;28;20032;-59
2021/07/05 03:40:46;;;;;;;24.00;10.15;;;;;;;;;;4890989;28;20106;-59
2021/07/05 03:43:14;;;;;;;25.98;10.35;;;;;;;;;;4891065;28;20151;-59
2021/07/05 03:45:39;;;;;;;26.52;11.02;;;;;;;;;;4893020;28;21878;-59
2021/07/05 03:48:08;;;;;;;29.55;11.82;;;;;;;;;;4890548;28;20036;-59
2021/07/05 03:50:34;;;;;;;26.83;10.68;;;;;;;;;;4873294;28;20036;-58
2021/07/05 03:53:02;;;;;;;27.00;11.93;;;;;;;;;;4890195;28;20027;-59
2021/07/05 03:55:34;;;;;;;22.40;10.65;;;;;;;;;;4904873;28;20039;-59
2021/07/05 03:58:02;;;;;;;35.17;11.80;;;;;;;;;;4900718;28;20059;-59
2021/07/05 04:00:29;;;;;;;26.73;11.75;;;;;;;;;;4889989;28;20024;-58
2021/07/05 04:02:57;;;;;;;30.60;12.70;;;;;;;;;;4886953;28;20032;-58
2021/07/05 04:05:27;;;;;;;26.02;10.48;;;;;;;;;;4905572;28;20021;-58
2021/07/05 04:08:00;;;;;;;36.95;11.40;;;;;;;;;;4875972;28;20087;-60
2021/07/05 04:10:25;;;;;;;29.30;11.77;;;;;;;;;;4878352;28;20042;-59
2021/07/05 04:12:53;;;;;;;24.40;10.80;;;;;;;;;;4907249;28;20032;-59
2021/07/05 04:15:19;;;;;;;26.30;11.80;;;;;;;;;;4907481;28;20505;-58
2021/07/05 04:17:44;;;;;;;33.80;12.90;;;;;;;;;;4894811;28;20036;-59
2021/07/05 04:20:12;;;;;;;28.27;12.77;;;;;;;;;;4892184;28;20443;-59
2021/07/05 04:22:40;;;;;;;31.10;13.40;;;;;;;;;;4907203;28;20052;-59
2021/07/05 04:25:09;;;;;;;39.05;13.65;;;;;;;;;;4894716;28;20033;-58
2021/07/05 04:27:37;;;;;;;37.83;14.45;;;;;;;;;;4891832;28;20047;-58
2021/07/05 04:30:07;;;;;;;34.53;14.27;;;;;;;;;;4893820;28;20496;-58
2021/07/05 04:32:37;;;;;;;37.22;13.38;;;;;;;;;;4892617;28;20518;-58
2021/07/05 04:35:09;;;;;;;32.33;13.27;;;;;;;;;;4892330;28;20044;-59
2021/07/05 04:37:40;;;;;;;32.50;14.05;;;;;;;;;;4878783;28;20044;-58
2021/07/05 04:40:09;;;;;;;34.45;14.82;;;;;;;;;;4891538;28;20067;-58
2021/07/05 04:42:40;;;;;;;30.77;13.43;;;;;;;;;;4908149;28;20044;-58
2021/07/05 04:45:06;;;;;;;37.17;14.32;;;;;;;;;;4894288;28;20044;-57
2021/07/05 04:47:37;;;;;;;39.17;14.82;;;;;;;;;;4902622;28;20036;-58
2021/07/05 04:50:03;;;;;;;34.53;15.00;;;;;;;;;;4890388;28;20028;-58
2021/07/05 04:52:31;;;;;;;37.97;15.88;;;;;;;;;;4889602;28;20448;-58
2021/07/05 04:54:57;;;;;;;36.83;16.23;;;;;;;;;;4890192;28;20099;-59
2021/07/05 04:57:27;;;;;;;29.13;14.65;;;;;;;;;;4864336;28;20098;-58
2021/07/05 04:59:56;;;;;;;34.60;14.77;;;;;;;;;;4889619;28;20036;-58
2021/07/05 05:02:24;;;;;;;29.85;14.23;;;;;;;;;;4906959;28;20085;-58
2021/07/05 05:04:52;;;;;;;29.98;13.95;;;;;;;;;;4905470;28;20126;-59
2021/07/05 05:07:20;;;;;;;34.30;13.95;;;;;;;;;;4889645;28;20737;-59
2021/07/05 05:09:46;;;;;;;31.20;14.77;;;;;;;;;;4892761;28;20543;-58
2021/07/05 05:12:16;;;;;;;29.15;14.15;;;;;;;;;;4874806;28;20035;-58
2021/07/05 05:14:41;;;;;;;23.15;12.23;;;;;;;;;;4875101;28;20044;-58
2021/07/05 05:17:07;;;;;;;29.50;14.63;;;;;;;;;;4889962;28;20074;-58
2021/07/05 05:19:35;;;;;;;24.95;14.20;;;;;;;;;;4889799;28;20049;-58
2021/07/05 05:22:06;;;;;;;24.63;13.30;;;;;;;;;;4891603;28;20032;-58
2021/07/05 05:24:32;;;;;;;22.65;12.55;;;;;;;;;;4890700;28;20048;-58
2021/07/05 05:26:59;;;;;;;26.92;13.63;;;;;;;;;;4892092;28;20035;-58
2021/07/05 05:29:28;;;;;;;26.13;13.13;;;;;;;;;;4889421;28;20048;-58
2021/07/05 05:31:56;;;;;;;27.27;13.45;;;;;;;;;;4890145;28;20047;-58
2021/07/05 05:34:21;;;;;;;25.33;13.55;;;;;;;;;;4859742;28;20050;-58
2021/07/05 05:36:49;;;;;;;28.00;14.98;;;;;;;;;;4894065;28;20114;-58
2021/07/05 05:39:20;;;;;;;31.75;14.10;;;;;;;;;;4889697;28;20044;-59
2021/07/05 05:41:45;;;;;;;25.85;14.02;;;;;;;;;;4892145;28;20054;-59
2021/07/05 05:44:11;;;;;;;25.27;13.43;;;;;;;;;;4890498;28;20040;-58
2021/07/05 05:46:37;;;;;;;23.35;13.48;;;;;;;;;;4893300;28;20657;-58
2021/07/05 05:49:05;;;;;;;23.10;13.38;;;;;;;;;;4889014;28;20032;-58
2021/07/05 05:51:32;;;;;;;26.20;14.57;;;;;;;;;;4891648;28;20028;-59
2021/07/05 05:54:04;;;;;;;26.45;13.27;;;;;;;;;;4892283;28;22101;-59
2021/07/05 05:56:33;;;;;;;24.65;14.93;;;;;;;;;;4892675;28;20032;-59
2021/07/05 05:59:05;;;;;;;27.67;13.73;;;;;;;;;;4878192;28;20150;-59
2021/07/05 06:01:31;;;;;;;27.92;12.57;;;;;;;;;;4893372;28;22166;-58
2021/07/05 06:03:56;;;;;;;31.58;13.38;;;;;;;;;;4872942;28;20044;-60
2021/07/05 06:06:25;;;;;;;26.45;13.43;;;;;;;;;;4892894;28;20039;-60
2021/07/05 06:08:51;;;;;;;26.35;14.15;;;;;;;;;;4890028;28;20032;-59
2021/07/05 06:11:19;;;;;;;24.73;13.60;;;;;;;;;;4890941;28;20090;-60
2021/07/05 06:13:45;;;;;;;30.85;14.57;;;;;;;;;;4890241;28;20045;-61
2021/07/05 06:16:13;;;;;;;28.38;13.55;;;;;;;;;;4890745;28;20107;-59
2021/07/05 06:18:44;;;;;;;22.42;12.55;;;;;;;;;;4892706;28;20040;-59
2021/07/05 06:21:10;;;;;;;27.75;13.10;;;;;;;;;;4905652;28;20115;-57
2021/07/05 06:23:38;;;;;;;26.85;13.90;;;;;;;;;;4890133;28;20044;-57
2021/07/05 06:26:08;;;;;;;28.13;13.45;;;;;;;;;;4892745;28;20698;-57
2021/07/05 06:28:36;;;;;;;29.50;13.48;;;;;;;;;;4890147;28;20119;-57
2021/07/05 06:31:04;;;;;;;23.38;12.43;;;;;;;;;;4888259;28;20032;-57
2021/07/05 06:33:29;;;;;;;23.48;13.02;;;;;;;;;;4892287;28;20070;-57
2021/07/05 06:35:57;;;;;;;27.05;12.68;;;;;;;;;;4878934;28;20040;-57
2021/07/05 06:38:25;;;;;;;30.75;13.68;;;;;;;;;;4876363;28;20075;-57
2021/07/05 06:40:52;;;;;;;28.45;12.73;;;;;;;;;;4887931;28;20048;-57
2021/07/05 06:43:20;;;;;;;28.05;12.75;;;;;;;;;;4863252;28;20452;-57
2021/07/05 06:45:48;;;;;;;31.73;13.55;;;;;;;;;;4874483;28;20067;-57
2021/07/05 06:48:13;;;;;;;37.63;14.90;;;;;;;;;;4890894;28;20090;-57
2021/07/05 06:50:42;;;;;;;29.73;13.70;;;;;;;;;;4862473;28;20029;-57
2021/07/05 06:53:07;;;;;;;31.83;13.90;;;;;;;;;;4889564;28;20058;-57
2021/07/05 06:55:42;;;;;;;37.55;14.60;;;;;;;;;;4891978;28;20040;-59
2021/07/05 06:58:10;;;;;;;27.70;12.60;;;;;;;;;;4888762;28;20048;-57
2021/07/05 07:00:38;;;;;;;45.25;12.35;;;;;;;;;;4891150;28;20062;-58
2021/07/05 07:03:06;;;;;;;24.80;8.68;;;;;;;;;;4892997;28;20044;-58
2021/07/05 07:05:34;;;;;;;30.13;8.27;;;;;;;;;;4889816;28;20245;-58
2021/07/05 07:08:02;;;;;;;17.02;7.43;;;;;;;;;;4892537;28;20551;-58
2021/07/05 07:10:30;;;;;;;19.15;6.90;;;;;;;;;;4889006;28;20056;-58
2021/07/05 07:12:56;;;;;;;25.48;5.28;;;;;;;;;;4888204;28;20054;-58
2021/07/05 07:15:37;;;;;;;10.52;3.10;;;;;;;;;;4892366;28;20036;-58
2021/07/05 07:18:14;;;;;;;54.17;3.95;;;;;;;;;;4887591;28;20032;-58
2021/07/05 07:20:40;;;;;;;9.88;2.03;;;;;;;;;;4892430;28;20036;-58
2021/07/05 07:23:05;;;;;;;10.50;2.30;;;;;;;;;;4888592;28;20043;-58
2021/07/05 07:25:35;;;;;;;9.88;2.08;;;;;;;;;;4903932;28;20044;-58
2021/07/05 07:28:00;;;;;;;6.07;2.17;;;;;;;;;;4873291;28;20049;-58
2021/07/05 07:30:26;;;;;;;14.55;2.90;;;;;;;;;;4889362;28;20126;-59
2021/07/05 07:32:51;;;;;;;12.93;2.78;;;;;;;;;;4903498;28;20650;-58
2021/07/05 07:35:18;;;;;;;18.58;2.15;;;;;;;;;;4890284;28;20459;-58
2021/07/05 07:37:48;;;;;;;37.63;2.42;;;;;;;;;;4889936;28;20045;-59
2021/07/05 07:40:21;;;;;;;23.20;1.90;;;;;;;;;;4867642;28;20036;-58
2021/07/05 07:42:47;;;;;;;8.57;1.50;;;;;;;;;;4895358;28;20143;-59
2021/07/05 07:45:16;;;;;;;3.70;1.10;;;;;;;;;;4895835;28;20615;-58
2021/07/05 07:47:44;;;;;;;11.88;1.27;;;;;;;;;;4893188;28;20040;-58
2021/07/05 07:50:11;;;;;;;3.13;1.27;;;;;;;;;;4894355;28;20491;-57
2021/07/05 07:52:42;;;;;;;5.07;1.73;;;;;;;;;;4895521;28;20033;-57
2021/07/05 07:55:09;;;;;;;2.05;1.30;;;;;;;;;;4891073;28;20115;-57
2021/07/05 07:57:37;;;;;;;4.88;1.00;;;;;;;;;;4895950;28;20756;-58
2021/07/05 08:00:06;;;;;;;2.22;1.17;;;;;;;;;;4873948;28;20030;-57
2021/07/05 08:02:34;;;;;;;2.42;1.17;;;;;;;;;;4879644;28;20644;-58
2021/07/05 08:05:01;;;;;;;3.53;1.35;;;;;;;;;;4875467;28;20032;-58
2021/07/05 08:07:27;;;;;;;6.22;1.38;;;;;;;;;;4891735;28;20063;-58
2021/07/05 08:09:59;;;;;;;5.07;1.38;;;;;;;;;;4891675;28;20028;-59
2021/07/05 08:12:29;;;;;;;3.83;1.50;;;;;;;;;;4900534;28;20036;-58
2021/07/05 08:14:57;;;;;;;4.20;1.40;;;;;;;;;;4877216;28;20056;-58
2021/07/05 08:17:22;;;;;;;5.10;1.70;;;;;;;;;;4905632;28;20131;-58
2021/07/05 08:19:51;;;;;;;5.13;1.77;;;;;;;;;;4893826;28;20755;-60
2021/07/05 08:22:17;;;;;;;4.63;2.08;;;;;;;;;;4891597;28;20043;-58
2021/07/05 08:24:45;;;;;;;4.45;2.88;;;;;;;;;;4906726;28;20495;-59
2021/07/05 08:27:13;;;;;;;5.80;2.00;;;;;;;;;;4893608;28;21005;-58
2021/07/05 08:29:39;;;;;;;4.10;2.22;;;;;;;;;;4906502;28;20047;-58
2021/07/05 08:32:04;;;;;;;4.22;1.83;;;;;;;;;;4873020;28;21899;-58
2021/07/05 08:34:30;;;;;;;3.00;1.83;;;;;;;;;;4893071;28;20067;-58
2021/07/05 08:37:02;;;;;;;8.20;2.17;;;;;;;;;;4901170;28;20040;-59
2021/07/05 08:39:30;;;;;;;3.47;1.70;;;;;;;;;;4894087;28;20387;-59
2021/07/05 08:41:55;;;;;;;3.30;1.63;;;;;;;;;;4892378;28;20037;-59
2021/07/05 08:44:24;;;;;;;3.05;1.75;;;;;;;;;;4891778;28;20059;-59
2021/07/05 08:46:56;;;;;;;4.70;1.77;;;;;;;;;;4881795;28;20038;-60
2021/07/05 08:49:24;;;;;;;4.53;1.65;;;;;;;;;;4892203;28;20063;-60
2021/07/05 08:51:53;;;;;;;3.97;1.77;;;;;;;;;;4865346;28;20028;-59
2021/07/05 08:54:21;;;;;;;3.90;1.70;;;;;;;;;;4890960;28;20443;-59
2021/07/05 08:56:46;;;;;;;3.80;1.55;;;;;;;;;;4891056;28;20036;-60
2021/07/05 08:59:17;;;;;;;4.13;2.00;;;;;;;;;;4893282;28;20032;-59
2021/07/05 09:01:46;;;;;;;4.78;2.40;;;;;;;;;;4892526;28;20127;-59
2021/07/05 09:04:12;;;;;;;7.57;2.42;;;;;;;;;;4893850;28;20162;-60
2021/07/05 09:06:59;;;;;;;8.00;3.05;;;;;;;;;;4891199;28;20055;-59
2021/07/05 09:09:27;;;;;;;4.20;2.47;;;;;;;;;;4889313;28;20125;-59
2021/07/05 09:11:55;;;;;;;6.10;2.47;;;;;;;;;;4894379;28;20063;-59
2021/07/05 09:14:23;;;;;;;5.85;2.95;;;;;;;;;;4891302;28;20391;-58
2021/07/05 09:16:49;;;;;;;7.18;3.55;;;;;;;;;;4891518;28;20032;-58
2021/07/05 09:19:20;;;;;;;12.68;3.67;;;;;;;;;;4893255;28;20036;-60
2021/07/05 09:21:47;;;;;;;8.95;3.97;;;;;;;;;;4890374;28;20806;-59
2021/07/05 09:24:25;;;;;;;7.55;3.90;;;;;;;;;;4904333;28;20028;-59
2021/07/05 09:27:00;;;;;;;12.38;3.90;;;;;;;;;;4889778;28;20032;-59
2021/07/05 09:29:28;;;;;;;5.95;3.65;;;;;;;;;;4889811;28;20051;-59
2021/07/05 09:31:55;;;;;;;10.73;3.67;;;;;;;;;;4891862;28;20028;-59
2021/07/05 09:34:27;;;;;;;6.85;3.38;;;;;;;;;;4893308;28;20028;-59
2021/07/05 09:36:55;;;;;;;;;;;;;;;;;;4892300;28;22029;-60
2021/07/05 09:39:24;;;;;;;9.07;3.75;;;;;;;;;;4890334;28;20429;-59
2021/07/05 09:41:55;;;;;;;7.40;3.78;;;;;;;;;;4903582;28;20051;-59
2021/07/05 09:44:24;;;;;;;5.65;3.72;;;;;;;;;;4890046;28;20512;-59
2021/07/05 09:46:53;;;;;;;11.35;4.15;;;;;;;;;;4906078;28;20119;-58
2021/07/05 09:49:18;;;;;;;8.00;4.05;;;;;;;;;;4905634;28;20172;-60
2021/07/05 09:51:46;;;;;;;6.60;4.63;;;;;;;;;;4891516;28;20230;-60
2021/07/05 09:54:15;;;;;;;13.57;4.68;;;;;;;;;;4891390;28;20032;-61
2021/07/05 09:56:45;;;;;;;7.38;3.80;;;;;;;;;;4888761;28;20046;-60
2021/07/05 09:59:14;;;;;;;9.50;3.60;;;;;;;;;;4890210;28;20068;-61
2021/07/05 10:01:47;;;;;;;8.77;3.35;;;;;;;;;;4885704;28;20052;-60
2021/07/05 10:07:27;;;;;;;7.88;3.25;;;;;;;;;;4892622;28;20046;-60
2021/07/05 10:09:52;;;;;;;6.22;3.60;;;;;;;;;;4902252;28;20042;-61
2021/07/05 10:12:21;;;;;;;7.80;3.65;;;;;;;;;;4892454;28;20127;-61
2021/07/05 10:15:01;;;;;;;8.57;3.22;;;;;;;;;;4904266;28;20032;-61
2021/07/05 10:17:30;;;;;;;9.57;3.92;;;;;;;;;;4891890;28;20028;-61
2021/07/05 10:19:59;;;;;;;8.02;3.78;;;;;;;;;;4890498;28;20051;-61
2021/07/05 10:22:29;;;;;;;7.15;3.65;;;;;;;;;;4877511;28;20036;-61
2021/07/05 10:25:00;;;;;;;8.17;3.60;;;;;;;;;;4906377;28;20036;-60
2021/07/05 10:27:27;;;;;;;4.63;3.28;;;;;;;;;;4892094;28;20439;-60
2021/07/05 10:29:56;;;;;;;8.30;3.28;;;;;;;;;;4891531;28;20040;-61
2021/07/05 10:32:29;;;;;;;6.57;3.35;;;;;;;;;;4876101;28;20078;-61
2021/07/05 10:35:00;;;;;;;8.48;3.30;;;;;;;;;;4903090;28;20028;-61
2021/07/05 10:37:32;;;;;;;5.72;2.83;;;;;;;;;;4889159;28;20063;-62
2021/07/05 10:39:58;;;;;;;5.40;2.90;;;;;;;;;;4889181;28;20041;-60
2021/07/05 10:42:41;;;;;;;7.13;3.38;;;;;;;;;;4892533;28;20106;-61
2021/07/05 10:45:08;;;;;;;10.20;3.10;;;;;;;;;;4890095;28;20050;-61
2021/07/05 10:47:46;;;;;;;9.65;2.63;;;;;;;;;;4872234;28;20472;-61
2021/07/05 10:50:38;;;;;;;9.43;2.72;;;;;;;;;;4891143;28;20046;-61
2021/07/05 10:53:06;;;;;;;6.90;2.65;;;;;;;;;;4887109;28;20043;-61
2021/07/05 10:55:37;;;;;;;5.40;2.70;;;;;;;;;;4884932;28;20202;-61
2021/07/05 10:58:17;;;;;;;6.55;2.90;;;;;;;;;;4904800;28;20036;-60
2021/07/05 11:00:51;;;;;;;5.90;2.38;;;;;;;;;;4890344;28;20028;-60
2021/07/05 11:03:35;;;;;;;4.45;2.50;;;;;;;;;;4893680;28;20044;-61
2021/07/05 11:06:02;;;;;;;6.40;2.33;;;;;;;;;;4891285;28;20024;-61
2021/07/05 11:08:35;;;;;;;5.07;2.60;;;;;;;;;;4886289;28;20042;-61
2021/07/05 11:11:10;;;;;;;6.50;2.13;;;;;;;;;;4890932;28;20043;-61
2021/07/05 11:13:40;;;;;;;4.03;2.92;;;;;;;;;;4890657;28;20036;-61
2021/07/05 11:16:09;;;;;;;8.27;2.60;;;;;;;;;;4908094;28;20089;-62
2021/07/05 11:18:37;;;;;;;9.38;2.95;;;;;;;;;;4907261;28;20088;-62
2021/07/05 11:21:06;;;;;;;3.08;2.35;;;;;;;;;;4895056;28;20751;-62
2021/07/05 11:23:56;;;;;;;8.43;2.40;;;;;;;;;;4880566;28;20085;-62
2021/07/05 11:26:23;;;;;;;2.30;1.88;;;;;;;;;;4895034;28;20158;-61
2021/07/05 11:29:07;;;;;;;5.72;2.17;;;;;;;;;;4894635;28;20040;-61
2021/07/05 11:31:46;;;;;;;6.38;2.50;;;;;;;;;;4907516;28;20131;-61
2021/07/05 11:34:27;;;;;;;6.95;2.72;;;;;;;;;;4896044;28;20041;-63
2021/07/05 11:37:16;;;;;;;6.45;2.85;;;;;;;;;;4893264;28;20079;-62
2021/07/05 11:39:43;;;;;;;6.60;2.75;;;;;;;;;;4893775;28;20043;-61
2021/07/05 11:42:12;;;;;;;9.00;2.65;;;;;;;;;;4891924;28;20040;-62
2021/07/05 11:44:55;;;;;;;9.25;2.60;;;;;;;;;;4887636;28;20052;-63
2021/07/05 11:47:36;;;;;;;5.90;2.47;;;;;;;;;;4894048;28;20518;-62
2021/07/05 11:50:31;;;;;;;9.25;2.72;;;;;;;;;;4892540;28;20029;-63
2021/07/05 11:53:01;;;;;;;4.65;2.78;;;;;;;;;;4897140;28;20504;-62
2021/07/05 11:55:30;;;;;;;7.53;3.05;;;;;;;;;;4894553;28;20523;-62
2021/07/05 11:57:57;;;;;;;11.20;3.38;;;;;;;;;;4892419;28;20577;-63
2021/07/05 12:00:27;;;;;;;3.45;2.80;;;;;;;;;;4892655;28;20040;-62
2021/07/05 12:03:05;;;;;;;7.97;3.03;;;;;;;;;;4894194;28;20040;-62
2021/07/05 12:05:40;;;;;;;7.25;3.63;;;;;;;;;;4893037;28;20055;-63
2021/07/05 12:08:11;;;;;;;6.97;3.05;;;;;;;;;;4891451;28;20043;-62
2021/07/05 12:10:40;;;;;;;8.00;3.00;;;;;;;;;;4890821;28;20074;-64
2021/07/05 12:13:10;;;;;;;7.78;3.60;;;;;;;;;;4895227;28;20047;-62
2021/07/05 12:15:40;;;;;;;8.73;3.40;;;;;;;;;;4906966;28;20043;-63
2021/07/05 12:18:08;;;;;;;7.80;3.53;;;;;;;;;;4880422;28;20123;-63
2021/07/05 12:20:36;;;;;;;8.68;3.28;;;;;;;;;;4893850;28;20590;-64
2021/07/05 12:23:08;;;;;;;9.65;3.58;;;;;;;;;;4901558;28;20052;-64
2021/07/05 12:25:36;;;;;;;6.75;2.88;;;;;;;;;;4892521;28;20032;-63
2021/07/05 12:28:12;;;;;;;8.82;3.17;;;;;;;;;;4907116;28;20544;-63
2021/07/05 12:30:44;;;;;;;8.20;3.15;;;;;;;;;;4888516;28;20032;-62
2021/07/05 12:33:12;;;;;;;7.70;3.15;;;;;;;;;;4890928;28;20118;-63
2021/07/05 12:35:38;;;;;;;4.38;2.50;;;;;;;;;;4907891;28;20047;-63
2021/07/05 12:38:10;;;;;;;5.00;2.45;;;;;;;;;;4891191;28;20032;-64
2021/07/05 12:40:39;;;;;;;5.97;2.05;;;;;;;;;;4893638;28;20036;-65
2021/07/05 12:43:07;;;;;;;8.07;2.03;;;;;;;;;;4892934;28;20040;-64
2021/07/05 12:45:35;;;;;;;7.85;2.22;;;;;;;;;;4891032;28;20045;-65
2021/07/05 12:48:16;;;;;;;4.57;1.73;;;;;;;;;;4906727;28;20171;-64
2021/07/05 12:50:49;;;;;;;5.28;2.40;;;;;;;;;;4906581;28;20040;-65
2021/07/05 12:53:20;;;;;;;5.68;1.70;;;;;;;;;;4906617;28;20737;-63
2021/07/05 12:55:52;;;;;;;6.32;1.73;;;;;;;;;;4891967;28;20110;-65
2021/07/05 12:58:36;;;;;;;5.38;1.92;;;;;;;;;;4892237;28;20040;-64
2021/07/05 13:01:03;;;;;;;4.28;1.85;;;;;;;;;;4892618;28;20044;-66
2021/07/05 13:03:30;;;;;;;8.00;2.35;;;;;;;;;;4892897;28;20103;-65
2021/07/05 13:06:08;;;;;;;6.50;1.92;;;;;;;;;;4906796;28;20063;-64
2021/07/05 13:08:37;;;;;;;9.98;1.70;;;;;;;;;;4891071;28;20370;-64
2021/07/05 13:11:06;;;;;;;6.45;1.77;;;;;;;;;;4892350;28;20625;-62
2021/07/05 13:13:37;;;;;;;6.85;1.75;;;;;;;;;;4888337;28;20035;-63
2021/07/05 13:16:16;;;;;;;8.10;2.22;;;;;;;;;;4892241;28;20036;-65
2021/07/05 13:18:41;;;;;;;7.65;2.30;;;;;;;;;;4905488;28;20036;-65
2021/07/05 13:21:12;;;;;;;2.88;1.80;;;;;;;;;;4876814;28;20440;-66
2021/07/05 13:23:43;;;;;;;13.35;2.00;;;;;;;;;;4890185;28;20046;-65
2021/07/05 13:26:09;;;;;;;5.20;2.25;;;;;;;;;;4903671;28;20040;-65
2021/07/05 13:28:46;;;;;;;7.25;2.08;;;;;;;;;;4891666;28;20067;-63
2021/07/05 13:31:29;;;;;;;4.93;2.10;;;;;;;;;;4892998;28;20072;-64
2021/07/05 13:33:55;;;;;;;7.65;2.60;;;;;;;;;;4891353;28;20040;-63
2021/07/05 13:36:22;;;;;;;8.90;2.97;;;;;;;;;;4890963;28;20027;-66
2021/07/05 13:38:50;;;;;;;8.40;2.85;;;;;;;;;;4890382;28;20051;-65
2021/07/05 13:41:19;;;;;;;6.55;2.95;;;;;;;;;;4891535;28;20036;-64
2021/07/05 13:43:50;;;;;;;16.10;4.10;;;;;;;;;;4894014;28;20731;-63
2021/07/05 13:46:21;;;;;;;6.53;2.67;;;;;;;;;;4890137;28;20044;-64
2021/07/05 13:48:46;;;;;;;6.60;3.17;;;;;;;;;;4892911;28;20036;-65
2021/07/05 13:51:17;;;;;;;7.68;2.97;;;;;;;;;;4892531;28;20180;-65
2021/07/05 13:53:47;;;;;;;11.07;3.25;;;;;;;;;;4891748;28;20042;-68
2021/07/05 13:56:19;;;;;;;9.90;3.25;;;;;;;;;;4891545;28;20647;-66
2021/07/05 13:58:44;;;;;;;6.45;2.78;;;;;;;;;;4904958;28;20067;-63
2021/07/05 14:01:17;;;;;;;12.68;3.10;;;;;;;;;;4891074;28;20162;-65
2021/07/05 14:03:46;;;;;;;10.93;3.80;;;;;;;;;;4890759;28;20070;-65
2021/07/05 14:06:12;;;;;;;8.98;3.42;;;;;;;;;;4889991;28;20043;-63
2021/07/05 14:08:38;;;;;;;12.68;3.38;;;;;;;;;;4891106;28;20127;-68
2021/07/05 14:11:06;;;;;;;7.72;2.58;;;;;;;;;;4900740;28;20046;-63
2021/07/05 14:13:34;;;;;;;7.13;2.75;;;;;;;;;;4888889;28;20425;-61
2021/07/05 14:16:03;;;;;;;6.05;2.63;;;;;;;;;;4896861;28;20036;-66
2021/07/05 14:18:29;;;;;;;5.78;2.38;;;;;;;;;;4903110;28;20850;-65
2021/07/05 14:20:55;;;;;;;4.88;2.92;;;;;;;;;;4906320;28;20033;-65
2021/07/05 14:23:22;;;;;;;6.68;3.00;;;;;;;;;;4888480;28;20056;-65
2021/07/05 14:25:48;;;;;;;4.50;2.30;;;;;;;;;;4891971;28;20386;-66
2021/07/05 14:28:14;;;;;;;7.72;3.13;;;;;;;;;;4884733;28;20101;-65
2021/07/05 14:30:43;;;;;;;9.00;2.63;;;;;;;;;;4904038;28;20041;-65
2021/07/05 14:33:09;;;;;;;10.05;2.42;;;;;;;;;;4890424;28;20048;-65
2021/07/05 14:35:35;;;;;;;4.30;2.38;;;;;;;;;;4892003;28;20035;-66
2021/07/05 14:38:03;;;;;;;4.13;2.20;;;;;;;;;;4892944;28;20040;-66
2021/07/05 14:40:31;;;;;;;7.70;2.08;;;;;;;;;;4885624;28;20039;-62
2021/07/05 14:42:57;;;;;;;6.30;2.00;;;;;;;;;;4891026;28;20036;-66
2021/07/05 14:45:26;;;;;;;7.03;1.80;;;;;;;;;;4873412;28;20059;-67
2021/07/05 14:47:54;;;;;;;3.10;1.75;;;;;;;;;;4890603;28;20044;-65
2021/07/05 14:50:25;;;;;;;5.13;1.67;;;;;;;;;;4889707;28;20044;-64
2021/07/05 14:52:54;;;;;;;2.97;1.60;;;;;;;;;;4889362;28;20047;-66